createdAt,value
2019-02-07T00:01:02.913Z,37.50
2019-02-07T00:03:32.049Z,39.88
2019-02-07T00:06:01.642Z,32.80
2019-02-07T00:08:30.781Z,37.45
2019-02-07T00:10:59.881Z,33.67
2019-02-07T00:13:29.009Z,35.43
2019-02-07T00:15:58.157Z,37.23
2019-02-07T00:18:27.289Z,39.13
2019-02-07T00:20:56.780Z,41.92
2019-02-07T00:23:25.913Z,45.43
2019-02-07T00:25:55.024Z,51.42
2019-02-07T00:28:24.558Z,58.10
2019-02-07T00:30:53.823Z,56.42
2019-02-07T00:33:23.493Z,59.40
2019-02-07T00:35:54.479Z,39.27
2019-02-07T00:38:36.717Z,46.90
2019-02-07T00:41:06.263Z,39.33
2019-02-07T00:43:37.780Z,45.63
2019-02-07T00:46:07.751Z,45.30
2019-02-07T00:48:37.522Z,64.87
2019-02-07T00:51:08.219Z,66.28
2019-02-07T00:53:37.562Z,37.85
2019-02-07T00:56:07.119Z,42.98
2019-02-07T00:58:36.896Z,43.50
2019-02-07T01:01:07.318Z,45.78
2019-02-07T01:03:49.730Z,44.75
2019-02-07T01:06:19.381Z,47.67
2019-02-07T01:08:48.644Z,47.88
2019-02-07T01:11:17.974Z,47.50
2019-02-07T01:13:47.558Z,46.98
2019-02-07T01:16:17.295Z,59.48
2019-02-07T01:18:46.563Z,81.05
2019-02-07T01:21:15.770Z,49.73
2019-02-07T01:23:45.114Z,41.18
2019-02-07T01:26:14.300Z,39.25
2019-02-07T01:28:43.720Z,41.63
2019-02-07T01:31:12.913Z,47.25
2019-02-07T01:33:42.025Z,49.77
2019-02-07T01:36:11.157Z,43.85
2019-02-07T01:38:40.273Z,40.40
2019-02-07T01:41:09.400Z,41.15
2019-02-07T01:43:38.789Z,40.55
2019-02-07T01:46:07.922Z,45.05
2019-02-07T01:48:37.037Z,39.75
2019-02-07T01:51:06.172Z,36.63
2019-02-07T01:53:35.293Z,32.00
2019-02-07T01:56:04.433Z,34.23
2019-02-07T01:58:34.033Z,34.48
2019-02-07T02:01:03.171Z,37.15
2019-02-07T02:03:32.289Z,40.12
2019-02-07T02:06:01.425Z,33.13
2019-02-07T02:08:30.568Z,35.20
2019-02-07T02:10:59.704Z,28.77
2019-02-07T02:13:29.294Z,27.95
2019-02-07T02:15:58.433Z,27.15
2019-02-07T02:18:27.317Z,28.55
2019-02-07T02:20:56.353Z,31.07
2019-02-07T02:23:25.505Z,28.57
2019-02-07T02:25:54.725Z,26.25
2019-02-07T02:28:23.828Z,28.57
2019-02-07T02:30:52.949Z,21.93
2019-02-07T02:33:22.089Z,27.15
2019-02-07T02:35:53.990Z,23.27
2019-02-07T02:38:35.086Z,25.05
2019-02-07T02:41:04.597Z,24.20
2019-02-07T02:43:33.729Z,23.18
2019-02-07T02:46:02.853Z,23.83
2019-02-07T02:48:31.976Z,22.95
2019-02-07T02:51:01.119Z,26.90
2019-02-07T02:53:30.309Z,27.48
2019-02-07T02:55:59.429Z,29.52
2019-02-07T02:58:28.556Z,29.63
2019-02-07T03:00:59.321Z,26.90
2019-02-07T03:03:35.794Z,28.07
2019-02-07T03:06:06.549Z,27.77
2019-02-07T03:08:49.032Z,29.65
2019-02-07T03:11:29.902Z,26.70
2019-02-07T03:17:05.003Z,22.40
2019-02-07T03:19:35.769Z,22.85
2019-02-07T03:22:18.711Z,22.67
2019-02-07T03:25:07.293Z,25.85
2019-02-07T03:27:41.201Z,23.15
2019-02-07T03:30:13.607Z,23.18
2019-02-07T03:32:44.373Z,19.92
2019-02-07T03:35:14.977Z,25.97
2019-02-07T03:37:48.304Z,24.23
2019-02-07T03:40:24.817Z,24.02
2019-02-07T03:42:58.402Z,29.63
2019-02-07T03:45:35.477Z,50.28
2019-02-07T03:48:18.176Z,36.30
2019-02-07T03:50:48.934Z,27.30
2019-02-07T03:53:31.713Z,24.65
2019-02-07T03:56:11.717Z,29.37
2019-02-07T03:58:54.275Z,33.10
2019-02-07T04:03:55.022Z,23.87
2019-02-07T04:06:32.005Z,29.18
2019-02-07T04:09:08.976Z,27.02
2019-02-07T04:11:51.673Z,21.25
2019-02-07T04:14:22.452Z,23.50
2019-02-07T04:16:53.219Z,22.52
2019-02-07T04:19:42.035Z,19.57
2019-02-07T04:22:21.951Z,23.60
2019-02-07T04:24:55.395Z,21.07
2019-02-07T04:27:42.436Z,20.05
2019-02-07T04:30:25.594Z,44.45
2019-02-07T04:33:02.209Z,36.00
2019-02-07T04:35:49.468Z,32.33
2019-02-07T04:38:20.295Z,36.42
2019-02-07T04:41:09.394Z,36.95
2019-02-07T04:43:43.072Z,25.77
2019-02-07T04:46:26.756Z,36.10
2019-02-07T04:49:04.335Z,20.65
2019-02-07T04:51:35.104Z,18.77
2019-02-07T04:54:18.149Z,18.57
2019-02-07T04:56:51.962Z,17.55
2019-02-07T04:59:28.725Z,29.82
2019-02-07T05:05:00.644Z,46.23
2019-02-07T05:07:47.610Z,51.42
2019-02-07T05:10:35.269Z,43.65
2019-02-07T05:13:22.394Z,36.80
2019-02-07T05:16:09.458Z,33.13
2019-02-07T05:18:49.040Z,42.48
2019-02-07T05:21:37.791Z,31.80
2019-02-07T05:24:24.168Z,56.50
2019-02-07T05:27:07.189Z,46.02
2019-02-07T05:29:54.195Z,54.60
2019-02-07T05:32:39.941Z,37.83
2019-02-07T05:35:12.740Z,49.53
2019-02-07T05:37:49.813Z,34.40
2019-02-07T05:40:20.661Z,41.53
2019-02-07T05:43:07.952Z,44.95
2019-02-07T05:45:55.369Z,34.15
2019-02-07T05:48:29.120Z,41.13
2019-02-07T05:51:17.883Z,40.43
2019-02-07T05:56:35.033Z,41.80
2019-02-07T05:59:05.799Z,40.67
2019-02-07T06:01:54.654Z,40.83
2019-02-07T06:04:40.654Z,45.55
2019-02-07T06:07:14.923Z,42.13
2019-02-07T06:09:49.083Z,36.90
2019-02-07T06:12:27.020Z,37.60
2019-02-07T06:15:07.013Z,36.50
2019-02-07T06:17:40.781Z,38.48
2019-02-07T06:20:11.844Z,41.13
2019-02-07T06:22:43.368Z,49.77
2019-02-07T06:25:23.363Z,43.23
2019-02-07T06:28:00.102Z,35.00
2019-02-07T06:30:36.605Z,41.37
2019-02-07T06:33:22.768Z,28.02
2019-02-07T06:35:53.929Z,32.83
2019-02-07T06:38:43.045Z,33.42
2019-02-07T06:41:17.121Z,25.65
2019-02-07T06:43:54.282Z,28.05
2019-02-07T06:46:28.009Z,25.50
2019-02-07T06:49:07.941Z,26.50
2019-02-07T06:51:57.081Z,19.15
2019-02-07T06:54:39.622Z,17.55
2019-02-07T06:57:17.150Z,27.27
2019-02-07T07:00:02.895Z,28.20
2019-02-07T07:02:48.684Z,19.02
2019-02-07T07:05:25.684Z,12.23
2019-02-07T07:08:12.896Z,12.58
2019-02-07T07:10:59.806Z,14.95
2019-02-07T07:13:30.646Z,17.57
2019-02-07T07:16:04.812Z,13.75
2019-02-07T07:18:35.672Z,19.55
2019-02-07T07:21:15.913Z,29.48
2019-02-07T07:23:55.899Z,35.15
2019-02-07T07:26:38.684Z,39.40
2019-02-07T07:29:12.624Z,45.28
2019-02-07T07:31:59.612Z,51.65
2019-02-07T07:34:48.850Z,42.30
2019-02-07T07:37:27.284Z,57.95
2019-02-07T07:39:58.070Z,44.25
2019-02-07T07:43:00.255Z,22.62
2019-02-07T07:45:40.392Z,17.87
2019-02-07T07:48:36.433Z,18.67
2019-02-07T07:51:22.766Z,14.28
2019-02-07T07:54:05.994Z,14.33
2019-02-07T07:56:51.812Z,9.43
2019-02-07T07:59:38.902Z,6.60
2019-02-07T08:02:22.608Z,12.03
2019-02-07T08:04:59.404Z,13.90
2019-02-07T08:07:32.853Z,8.13
2019-02-07T08:10:19.785Z,7.30
2019-02-07T08:13:07.305Z,12.65
2019-02-07T08:15:47.057Z,8.88
2019-02-07T08:18:34.209Z,7.83
2019-02-07T08:21:21.146Z,6.62
2019-02-07T08:24:10.054Z,43.80
2019-02-07T08:26:57.313Z,26.85
2019-02-07T08:29:34.523Z,39.92
2019-02-07T08:32:17.068Z,34.05
2019-02-07T08:34:50.552Z,28.80
2019-02-07T08:37:21.321Z,76.70
2019-02-07T08:39:52.092Z,209.30
2019-02-07T08:42:25.604Z,71.92
2019-02-07T08:44:59.900Z,65.05
2019-02-07T08:47:43.312Z,30.37
2019-02-07T08:50:30.731Z,13.05
2019-02-07T08:56:18.390Z,9.58
2019-02-07T08:58:52.129Z,69.05
2019-02-07T09:01:38.421Z,60.48
2019-02-07T09:04:15.505Z,42.55
2019-02-07T09:06:52.357Z,30.17
2019-02-07T09:09:25.797Z,41.05
2019-02-07T09:12:12.829Z,27.30
2019-02-07T09:14:50.325Z,23.42
2019-02-07T09:17:21.128Z,21.35
2019-02-07T09:19:54.833Z,17.60
2019-02-07T09:22:41.792Z,16.97
2019-02-07T09:25:33.899Z,17.17
2019-02-07T09:28:01.659Z,20.48
2019-02-07T09:30:41.567Z,25.08
2019-02-07T09:33:21.295Z,20.92
2019-02-07T09:36:10.149Z,22.70
2019-02-07T09:38:44.306Z,15.55
2019-02-07T09:41:31.803Z,19.30
2019-02-07T09:44:05.280Z,18.17
2019-02-07T09:46:52.465Z,21.40
2019-02-07T09:49:23.221Z,23.07
2019-02-07T09:51:54.057Z,25.70
2019-02-07T09:54:36.871Z,33.08
2019-02-07T09:57:07.632Z,27.42
2019-02-07T09:59:47.469Z,32.00
2019-02-07T10:02:18.232Z,27.58
2019-02-07T10:04:52.250Z,29.95
2019-02-07T10:07:37.949Z,26.42
2019-02-07T10:10:28.422Z,23.57
2019-02-07T10:13:15.383Z,26.23
2019-02-07T10:15:52.898Z,24.80
2019-02-07T10:18:32.829Z,24.02
2019-02-07T10:23:51.774Z,20.45
2019-02-07T10:26:25.493Z,16.70
2019-02-07T10:29:12.494Z,15.80
2019-02-07T10:31:49.707Z,19.12
2019-02-07T10:34:20.472Z,20.15
2019-02-07T10:36:56.965Z,13.98
2019-02-07T10:39:44.241Z,13.53
2019-02-07T10:42:31.653Z,5.33
2019-02-07T10:45:08.622Z,6.90
2019-02-07T10:47:51.910Z,6.22
2019-02-07T10:50:38.247Z,1.87
2019-02-07T10:53:21.247Z,1.35
2019-02-07T10:56:10.454Z,1.92
2019-02-07T10:59:00.167Z,1.60
2019-02-07T11:01:35.668Z,2.77
2019-02-07T11:04:09.522Z,2.50
2019-02-07T11:06:52.378Z,3.20
2019-02-07T11:09:50.406Z,2.67
2019-02-07T11:12:21.154Z,4.15
2019-02-07T11:14:51.916Z,2.20
2019-02-07T11:17:34.905Z,1.47
2019-02-07T11:20:32.999Z,2.05
2019-02-07T11:23:20.224Z,1.95
2019-02-07T11:25:50.993Z,1.95
2019-02-07T11:28:21.793Z,1.60
2019-02-07T11:31:04.737Z,4.42
2019-02-07T11:33:38.813Z,3.37
2019-02-07T11:36:21.733Z,2.02
2019-02-07T11:38:53.614Z,1.95
2019-02-07T11:41:27.907Z,2.10
2019-02-07T11:43:59.258Z,1.72
2019-02-07T11:46:37.148Z,1.90
2019-02-07T11:49:06.825Z,2.35
2019-02-07T11:51:40.716Z,1.82
2019-02-07T11:54:14.631Z,2.45
2019-02-07T11:56:54.986Z,2.30
2019-02-07T11:59:37.599Z,1.75
2019-02-07T12:02:17.193Z,2.27
2019-02-07T12:05:00.712Z,1.72
2019-02-07T12:07:49.521Z,2.33
2019-02-07T12:10:22.895Z,2.17
2019-02-07T12:13:08.825Z,2.62
2019-02-07T12:15:48.816Z,1.45
2019-02-07T12:18:21.009Z,2.55
2019-02-07T12:21:08.161Z,2.53
2019-02-07T12:23:39.001Z,1.80
2019-02-07T12:26:17.900Z,2.15
2019-02-07T12:28:55.214Z,2.02
2019-02-07T12:31:27.065Z,1.72
2019-02-07T12:34:04.017Z,1.47
2019-02-07T12:36:34.830Z,1.40
2019-02-07T12:39:11.025Z,1.35
2019-02-07T12:41:47.816Z,2.65
2019-02-07T12:44:18.579Z,2.70
2019-02-07T12:46:51.966Z,5.45
2019-02-07T12:49:29.340Z,2.35
2019-02-07T12:52:01.184Z,5.92
2019-02-07T12:54:37.900Z,2.22
2019-02-07T12:57:08.642Z,1.82
2019-02-07T12:59:39.484Z,1.50
2019-02-07T13:02:10.303Z,2.45
2019-02-07T13:04:49.461Z,2.60
2019-02-07T13:07:19.338Z,2.45
2019-02-07T13:09:59.323Z,1.98
2019-02-07T13:12:32.923Z,5.05
2019-02-07T13:15:12.548Z,2.90
2019-02-07T13:17:46.296Z,2.15
2019-02-07T13:20:31.736Z,2.58
2019-02-07T13:23:11.460Z,2.58
2019-02-07T13:25:42.208Z,3.47
2019-02-07T13:28:28.609Z,2.22
2019-02-07T13:31:05.571Z,3.42
2019-02-07T13:33:42.430Z,3.08
2019-02-07T13:36:16.329Z,3.20
2019-02-07T13:38:47.149Z,3.60
2019-02-07T13:41:17.896Z,4.22
2019-02-07T13:43:51.568Z,5.42
2019-02-07T13:46:31.777Z,4.62
2019-02-07T13:49:02.519Z,7.10
2019-02-07T13:51:51.576Z,5.00
2019-02-07T13:54:31.245Z,4.08
2019-02-07T13:57:01.998Z,7.00
2019-02-07T13:59:35.687Z,4.30
2019-02-07T14:02:09.952Z,6.17
2019-02-07T14:04:43.640Z,6.35
2019-02-07T14:10:41.428Z,5.42
2019-02-07T14:13:22.289Z,3.95
2019-02-07T14:16:05.297Z,6.60
2019-02-07T14:21:25.847Z,2.75
2019-02-07T14:24:05.376Z,4.83
2019-02-07T14:26:44.988Z,6.05
2019-02-07T14:29:28.232Z,6.30
2019-02-07T14:32:15.556Z,6.33
2019-02-07T14:35:02.369Z,5.40
2019-02-07T14:37:38.864Z,5.95
2019-02-07T14:40:28.745Z,6.62
2019-02-07T14:43:11.863Z,6.33
2019-02-07T14:45:45.751Z,4.65
2019-02-07T14:48:22.377Z,3.98
2019-02-07T14:50:51.812Z,6.10
2019-02-07T14:53:20.927Z,5.30
2019-02-07T14:55:50.036Z,4.58
2019-02-07T14:58:19.150Z,3.83
2019-02-07T15:00:48.261Z,3.62
2019-02-07T15:03:17.376Z,3.80
2019-02-07T15:05:46.976Z,4.60
2019-02-07T15:08:16.101Z,3.67
2019-02-07T15:10:45.191Z,6.05
2019-02-07T15:13:14.301Z,4.22
2019-02-07T15:15:43.409Z,4.20
2019-02-07T15:18:12.530Z,1.17
2019-02-07T15:20:42.116Z,3.58
2019-02-07T15:23:11.231Z,2.80
2019-02-07T15:25:40.611Z,3.47
2019-02-07T15:28:09.733Z,2.33
2019-02-07T15:30:38.853Z,3.55
2019-02-07T15:33:08.015Z,2.42
2019-02-07T15:35:43.633Z,4.70
2019-02-07T15:38:13.241Z,6.80
2019-02-07T15:40:42.341Z,3.52
2019-02-07T15:43:11.457Z,5.30
2019-02-07T15:45:40.587Z,4.15
2019-02-07T15:48:09.693Z,3.85
2019-02-07T15:50:39.481Z,5.45
2019-02-07T15:53:11.144Z,3.72
2019-02-07T15:55:40.264Z,2.77
2019-02-07T15:58:09.440Z,4.37
2019-02-07T16:00:43.111Z,5.25
2019-02-07T16:03:26.590Z,4.35
2019-02-07T16:08:24.505Z,2.45
2019-02-07T16:10:53.648Z,1.98
2019-02-07T16:13:23.160Z,2.42
2019-02-07T16:15:53.016Z,3.12
2019-02-07T16:18:22.125Z,3.27
2019-02-07T16:20:51.233Z,4.42
2019-02-07T16:23:20.336Z,3.22
2019-02-07T16:25:49.460Z,3.05
2019-02-07T16:28:20.401Z,2.55
2019-02-07T16:30:49.928Z,2.70
2019-02-07T16:33:19.036Z,6.25
2019-02-07T16:35:48.150Z,4.75
2019-02-07T16:38:17.245Z,2.95
2019-02-07T16:40:46.360Z,2.95
2019-02-07T16:43:15.461Z,3.98
2019-02-07T16:45:45.249Z,3.47
2019-02-07T16:48:14.357Z,3.67
2019-02-07T16:50:43.843Z,5.58
2019-02-07T16:53:12.944Z,5.37
2019-02-07T16:55:42.051Z,8.95
2019-02-07T16:58:11.156Z,7.70
2019-02-07T17:00:41.055Z,8.35
2019-02-07T17:03:10.230Z,14.93
2019-02-07T17:05:39.419Z,15.10
2019-02-07T17:08:08.636Z,7.30
2019-02-07T17:10:39.528Z,7.90
2019-02-07T17:13:13.341Z,6.25
2019-02-07T17:15:42.497Z,8.80
2019-02-07T17:18:11.880Z,9.60
2019-02-07T17:20:41.069Z,8.05
2019-02-07T17:23:10.175Z,6.33
2019-02-07T17:25:39.316Z,9.15
2019-02-07T17:28:08.436Z,12.25
2019-02-07T17:30:37.547Z,14.55
2019-02-07T17:33:06.958Z,12.93
2019-02-07T17:35:36.069Z,9.03
2019-02-07T17:38:05.192Z,11.15
2019-02-07T17:40:34.292Z,13.70
2019-02-07T17:43:03.400Z,9.93
2019-02-07T17:45:33.155Z,25.55
2019-02-07T17:48:02.290Z,18.90
2019-02-07T17:50:34.322Z,19.25
2019-02-07T17:53:08.671Z,13.68
2019-02-07T17:55:38.046Z,20.72
2019-02-07T17:58:07.912Z,22.98
2019-02-07T18:00:47.219Z,14.98
2019-02-07T18:03:16.333Z,14.28
2019-02-07T18:05:45.701Z,16.25
2019-02-07T18:08:15.243Z,21.27
2019-02-07T18:10:44.349Z,18.35
2019-02-07T18:13:26.138Z,9.48
2019-02-07T18:15:57.369Z,12.37
2019-02-07T18:18:26.067Z,10.08
2019-02-07T18:20:55.168Z,10.23
2019-02-07T18:23:24.310Z,10.45
2019-02-07T18:25:53.408Z,9.85
2019-02-07T18:28:22.532Z,8.78
2019-02-07T18:30:51.641Z,7.25
2019-02-07T18:33:20.949Z,13.15
2019-02-07T18:35:50.154Z,14.28
2019-02-07T18:38:19.273Z,10.20
2019-02-07T18:40:48.451Z,14.35
2019-02-07T18:43:17.561Z,11.35
2019-02-07T18:45:46.716Z,11.35
2019-02-07T18:48:15.849Z,13.68
2019-02-07T18:50:45.025Z,12.45
2019-02-07T18:53:14.524Z,11.75
2019-02-07T18:55:44.004Z,9.90
2019-02-07T18:58:13.129Z,7.30
2019-02-07T19:00:42.329Z,11.93
2019-02-07T19:03:13.540Z,8.48
2019-02-07T19:05:42.673Z,7.58
2019-02-07T19:08:11.808Z,20.57
2019-02-07T19:10:41.388Z,16.80
2019-02-07T19:13:10.561Z,46.15
2019-02-07T19:15:48.757Z,25.80
2019-02-07T19:18:17.876Z,13.18
2019-02-07T19:20:46.989Z,8.75
2019-02-07T19:23:16.169Z,7.92
2019-02-07T19:25:45.465Z,8.08
2019-02-07T19:28:14.649Z,7.10
2019-02-07T19:30:43.908Z,4.17
2019-02-07T19:33:13.052Z,4.85
2019-02-07T19:35:42.162Z,3.42
2019-02-07T19:38:11.332Z,5.22
2019-02-07T19:40:40.766Z,5.50
2019-02-07T19:43:09.869Z,5.12
2019-02-07T19:45:39.041Z,3.05
2019-02-07T19:48:08.145Z,3.42
2019-02-07T19:50:37.264Z,2.80
2019-02-07T19:53:06.453Z,4.22
2019-02-07T19:55:37.024Z,2.70
2019-02-07T19:58:07.781Z,2.25
2019-02-07T20:00:39.374Z,2.85
2019-02-07T20:03:07.781Z,3.15
2019-02-07T20:05:36.940Z,1.65
2019-02-07T20:08:06.713Z,2.10
2019-02-07T20:10:36.177Z,2.10
2019-02-07T20:13:05.273Z,1.40
2019-02-07T20:15:39.740Z,1.52
2019-02-07T20:18:10.610Z,2.60
2019-02-07T20:20:40.448Z,1.55
2019-02-07T20:23:09.621Z,3.25
2019-02-07T20:25:39.237Z,1.98
2019-02-07T20:28:08.347Z,2.15
2019-02-07T20:30:42.726Z,2.10
2019-02-07T20:33:11.947Z,2.50
2019-02-07T20:35:41.075Z,2.33
2019-02-07T20:38:10.847Z,2.65
2019-02-07T20:40:40.058Z,3.27
2019-02-07T20:43:09.333Z,1.90
2019-02-07T20:45:38.530Z,2.00
2019-02-07T20:48:08.100Z,2.30
2019-02-07T20:50:37.200Z,2.20
2019-02-07T20:53:06.588Z,2.40
2019-02-07T20:55:36.656Z,2.22
2019-02-07T20:58:06.152Z,2.52
2019-02-07T21:00:37.876Z,4.05
2019-02-07T21:03:07.073Z,3.15
2019-02-07T21:05:36.883Z,3.20
2019-02-07T21:08:06.186Z,3.08
2019-02-07T21:10:38.321Z,3.20
2019-02-07T21:13:08.040Z,3.30
2019-02-07T21:15:37.179Z,3.42
2019-02-07T21:18:06.782Z,3.72
2019-02-07T21:20:37.310Z,3.60
2019-02-07T21:23:06.584Z,3.05
2019-02-07T21:25:41.903Z,4.62
2019-02-07T21:28:11.375Z,4.05
2019-02-07T21:30:40.474Z,2.90
2019-02-07T21:33:09.601Z,3.40
2019-02-07T21:35:38.721Z,4.65
2019-02-07T21:38:07.846Z,3.95
2019-02-07T21:40:37.084Z,3.10
2019-02-07T21:43:06.299Z,3.00
2019-02-07T21:45:35.865Z,3.37
2019-02-07T21:48:07.125Z,3.02
2019-02-07T21:50:36.285Z,3.10
2019-02-07T21:53:05.957Z,2.87
2019-02-07T21:55:36.861Z,3.22
2019-02-07T21:58:07.820Z,3.98
2019-02-07T22:00:59.369Z,4.67
2019-02-07T22:03:30.084Z,4.28
2019-02-07T22:05:59.453Z,6.15
2019-02-07T22:08:28.701Z,5.55
2019-02-07T22:10:58.429Z,6.72
2019-02-07T22:13:27.538Z,4.67
2019-02-07T22:15:57.626Z,4.58
2019-02-07T22:18:26.765Z,5.95
2019-02-07T22:20:55.857Z,5.62
2019-02-07T22:23:25.005Z,4.67
2019-02-07T22:25:54.724Z,4.20
2019-02-07T22:28:23.832Z,6.47
2019-02-07T22:30:52.954Z,6.35
2019-02-07T22:33:22.061Z,8.33
2019-02-07T22:35:51.172Z,8.80
2019-02-07T22:38:20.648Z,8.50
2019-02-07T22:40:50.252Z,7.00
2019-02-07T22:43:19.445Z,9.25
2019-02-07T22:45:48.620Z,12.07
2019-02-07T22:48:18.009Z,8.60
2019-02-07T22:50:47.133Z,10.78
2019-02-07T22:53:16.245Z,10.00
2019-02-07T22:55:45.836Z,9.38
2019-02-07T22:58:15.366Z,8.93
2019-02-07T23:01:02.922Z,7.78
2019-02-07T23:03:32.020Z,10.28
2019-02-07T23:06:13.987Z,9.08
2019-02-07T23:08:43.454Z,8.15
2019-02-07T23:11:12.576Z,9.25
2019-02-07T23:13:41.800Z,9.75
2019-02-07T23:16:10.937Z,10.85
2019-02-07T23:18:40.962Z,7.58
2019-02-07T23:21:11.122Z,10.32
2019-02-07T23:23:40.582Z,10.03
2019-02-07T23:26:10.100Z,8.30
2019-02-07T23:28:39.483Z,8.30
2019-02-07T23:31:20.908Z,7.90
2019-02-07T23:33:52.768Z,8.55
2019-02-07T23:36:21.929Z,9.50
2019-02-07T23:38:51.056Z,9.20
2019-02-07T23:41:21.225Z,7.60
2019-02-07T23:43:50.394Z,8.95
2019-02-07T23:46:19.836Z,9.05
2019-02-07T23:48:49.312Z,9.98
2019-02-07T23:51:18.811Z,11.10
2019-02-07T23:53:48.253Z,10.53
2019-02-07T23:56:17.389Z,10.23
2019-02-07T23:58:46.522Z,10.58
